Time;durP1;ratioP1;P1;durP2;ratioP2;P2;SDS_P1;SDS_P2;PMS_P1;PMS_P2;Temp;Humidity;BMP_temperature;BMP_pressure;BME280_temperature;BME280_humidity;BME280_pressure;Samples;Min_cycle;Max_cycle;Signal;HPM_P1;HPM_P2
2023/01/14 00:00:28;;;;;;;0.85;0.80;;;;;;;4.50;44.98;92766.56;5037671;28;20403;-77
2023/01/14 00:02:54;;;;;;;0.60;0.60;;;;;;;4.68;44.03;92768.84;5036515;28;20041;-78
2023/01/14 00:05:19;;;;;;;0.47;0.47;;;;;;;4.94;44.30;92772.50;5033379;28;20041;-78
2023/01/14 00:11:46;;;;;;;0.55;0.55;;;;;;;5.26;44.55;92776.19;5018851;28;20032;-78
2023/01/14 00:17:47;;;;;;;0.70;0.70;;;;;;;5.49;43.87;92777.69;5016310;28;20037;-78
2023/01/14 00:20:14;;;;;;;0.65;0.65;;;;;;;5.88;42.97;92774.84;5017501;28;20050;-78
2023/01/14 00:22:59;;;;;;;0.88;0.55;;;;;;;5.83;43.24;92773.00;5017797;28;20068;-78
2023/01/14 00:25:24;;;;;;;0.65;0.65;;;;;;;5.80;43.23;92768.31;5018022;28;20045;-78
2023/01/14 00:27:51;;;;;;;0.75;0.70;;;;;;;5.80;43.40;92758.69;4999964;28;20399;-79
2023/01/14 00:34:11;;;;;;;0.65;0.63;;;;;;;5.50;44.70;92772.25;5017961;28;20064;-78
2023/01/14 00:40:10;;;;;;;0.75;0.75;;;;;;;5.19;45.87;92777.16;5017280;28;20080;-78
2023/01/14 00:42:36;;;;;;;0.63;0.63;;;;;;;5.00;45.84;92775.94;5016543;28;20030;-78
2023/01/14 00:48:23;;;;;;;0.60;0.60;;;;;;;4.59;47.56;92788.44;5016683;28;20042;-78
2023/01/14 00:50:49;;;;;;;0.95;0.68;;;;;;;4.49;46.78;92791.72;5016462;28;20057;-78
2023/01/14 00:53:16;;;;;;;0.70;0.60;;;;;;;4.42;47.33;92787.75;5021152;28;20061;-78
2023/01/14 00:55:43;;;;;;;1.02;0.68;;;;;;;4.36;47.32;92782.47;5037125;28;20037;-78
2023/01/14 01:02:04;;;;;;;1.63;0.70;;;;;;;4.23;47.43;92793.19;5021320;28;20068;-78
2023/01/14 01:04:32;;;;;;;0.80;0.80;;;;;;;4.19;47.70;92792.13;5018355;28;20034;-78
2023/01/14 01:06:57;;;;;;;0.68;0.68;;;;;;;4.14;47.54;92799.81;5018907;28;20034;-77
2023/01/14 01:09:23;;;;;;;1.00;0.82;;;;;;;4.07;47.86;92799.19;5018808;28;20030;-78
2023/01/14 01:15:43;;;;;;;1.02;0.75;;;;;;;3.90;48.29;92787.06;5019226;28;20037;-77
2023/01/14 01:22:02;;;;;;;0.77;0.77;;;;;;;3.71;48.60;92791.69;5038037;28;20177;-78
2023/01/14 01:28:21;;;;;;;1.30;0.77;;;;;;;3.85;48.02;92797.34;5038350;28;20095;-77
2023/01/14 01:34:15;;;;;;;0.77;0.60;;;;;;;4.24;46.97;92801.75;5036550;28;20041;-78
2023/01/14 01:36:41;;;;;;;0.68;0.60;;;;;;;4.35;46.98;92801.66;5037910;28;20037;-78
2023/01/14 01:42:35;;;;;;;1.48;0.60;;;;;;;4.53;46.53;92815.38;5036790;28;20052;-78
2023/01/14 01:45:40;;;;;;;0.70;0.70;;;;;;;4.54;46.81;92816.91;5020494;28;20029;-77
2023/01/14 01:48:10;;;;;;;0.95;0.80;;;;;;;4.58;46.43;92818.00;5052882;28;20064;-78
2023/01/14 01:50:36;;;;;;;0.70;0.70;;;;;;;4.62;46.48;92826.09;5037696;28;20495;-78
2023/01/14 01:53:45;;;;;;;0.47;0.47;;;;;;;4.58;46.81;92818.00;5036443;28;20129;-78
2023/01/14 01:59:26;;;;;;;0.57;0.57;;;;;;;4.51;46.61;92813.00;5035708;28;20041;-78
2023/01/14 02:01:54;;;;;;;0.85;0.63;;;;;;;4.56;45.66;92817.47;5019948;28;20081;-78
2023/01/14 02:07:46;;;;;;;1.00;0.55;;;;;;;4.66;45.65;92820.19;5032831;28;20030;-77
2023/01/14 02:10:12;;;;;;;0.60;0.60;;;;;;;4.62;46.01;92818.31;5017489;28;20032;-77
2023/01/14 02:16:21;;;;;;;0.70;0.63;;;;;;;4.56;46.12;92820.06;5016320;28;20447;-77
2023/01/14 02:19:13;;;;;;;1.25;0.70;;;;;;;4.54;45.84;92814.31;5018244;28;20767;-77
2023/01/14 02:21:46;;;;;;;1.65;0.80;;;;;;;4.58;46.14;92820.59;5017178;28;20029;-77
2023/01/14 02:24:36;;;;;;;0.50;0.50;;;;;;;4.57;46.36;92826.78;5016883;28;20046;-77
2023/01/14 02:27:36;;;;;;;0.88;0.70;;;;;;;4.56;46.42;92820.06;5017767;28;20033;-77
2023/01/14 02:30:06;;;;;;;0.50;0.50;;;;;;;4.53;46.53;92823.13;5022320;28;20029;-77
2023/01/14 02:32:52;;;;;;;0.65;0.52;;;;;;;4.54;45.97;92822.09;5041222;28;20080;-77
2023/01/14 02:35:27;;;;;;;0.40;0.40;;;;;;;4.55;45.95;92815.91;5007543;28;20100;-78
2023/01/14 02:38:11;;;;;;;1.70;0.52;;;;;;;4.57;46.08;92816.41;5031948;28;20036;-78
2023/01/14 02:40:58;;;;;;;0.60;0.60;;;;;;;4.60;45.44;92815.97;5031642;28;20041;-77
2023/01/14 02:46:53;;;;;;;0.57;0.57;;;;;;;4.65;44.94;92810.81;5031409;28;20042;-77
2023/01/14 02:49:25;;;;;;;1.73;0.90;;;;;;;4.73;44.08;92810.41;5031643;28;20038;-77
2023/01/14 02:51:56;;;;;;;0.75;0.60;;;;;;;4.77;43.99;92808.09;5013863;28;20073;-77
2023/01/14 02:54:40;;;;;;;0.60;0.60;;;;;;;4.90;43.38;92810.34;5031466;28;20046;-77
2023/01/14 03:00:29;;;;;;;1.50;0.60;;;;;;;4.98;43.44;92799.53;5035099;28;20034;-77
2023/01/14 03:06:01;;;;;;;0.63;0.63;;;;;;;5.12;42.78;92802.53;5034917;28;20029;-78
2023/01/14 03:12:26;;;;;;;1.35;0.80;;;;;;;5.22;42.72;92805.25;5035197;28;20048;-77
2023/01/14 03:19:12;;;;;;;0.80;0.60;;;;;;;5.37;41.99;92793.41;5034154;28;20043;-77
2023/01/14 03:21:47;;;;;;;0.60;0.60;;;;;;;5.37;41.67;92783.03;5034460;28;20056;-77
2023/01/14 03:31:27;;;;;;;0.50;0.50;;;;;;;5.39;41.44;92797.34;5031270;28;20040;-78
2023/01/14 03:34:00;;;;;;;0.60;0.60;;;;;;;5.30;42.09;92790.25;5014633;28;20065;-78
2023/01/14 03:39:49;;;;;;;0.70;0.70;;;;;;;5.28;41.49;92792.31;5016056;28;20034;-78
2023/01/14 03:42:20;;;;;;;0.65;0.65;;;;;;;5.44;41.10;92786.22;5031282;28;20550;-77
2023/01/14 03:48:09;;;;;;;0.93;0.60;;;;;;;5.43;40.41;92782.84;5016445;28;20479;-77
2023/01/14 03:57:08;;;;;;;0.90;0.60;;;;;;;5.39;40.16;92760.22;5025723;28;20044;-78
2023/01/14 04:03:05;;;;;;;0.50;0.50;;;;;;;5.51;39.70;92760.03;5015231;28;20041;-79
2023/01/14 04:05:31;;;;;;;0.93;0.63;;;;;;;5.49;39.30;92755.09;5015220;28;20097;-78
2023/01/14 04:11:50;;;;;;;1.95;0.80;;;;;;;5.54;39.47;92770.72;5015147;28;20048;-78
2023/01/14 04:18:09;;;;;;;1.20;0.73;;;;;;;5.50;39.67;92774.06;5015105;28;20076;-77
2023/01/14 04:20:53;;;;;;;0.57;0.57;;;;;;;5.57;39.31;92767.63;5015040;28;20510;-78
2023/01/14 04:23:19;;;;;;;0.60;0.60;;;;;;;5.49;39.42;92767.28;5014848;28;20057;-78
2023/01/14 04:25:45;;;;;;;0.85;0.80;;;;;;;5.52;39.19;92757.19;5014282;28;20033;-78
2023/01/14 04:31:40;;;;;;;5.32;0.70;;;;;;;5.72;37.74;92761.78;5019267;28;20037;-77
2023/01/14 04:34:06;;;;;;;0.88;0.68;;;;;;;5.76;38.13;92772.44;5018947;28;20553;-77
2023/01/14 04:40:25;;;;;;;0.75;0.60;;;;;;;5.68;38.22;92768.50;5019305;28;20068;-78
2023/01/14 04:46:44;;;;;;;0.50;0.50;;;;;;;5.60;37.93;92774.91;5019324;28;20128;-77
2023/01/14 04:49:28;;;;;;;0.52;0.52;;;;;;;5.62;37.93;92785.84;5018015;28;20042;-77
2023/01/14 04:52:13;;;;;;;2.90;0.70;;;;;;;5.58;37.68;92782.19;5019571;28;20060;-77
2023/01/14 04:54:39;;;;;;;0.47;0.40;;;;;;;5.54;37.97;92786.31;5032851;28;20037;-77
2023/01/14 04:57:04;;;;;;;0.50;0.50;;;;;;;5.56;37.17;92789.44;5039354;28;20112;-78
2023/01/14 05:00:07;;;;;;;0.75;0.70;;;;;;;5.58;37.23;92782.19;5037710;28;20073;-77
2023/01/14 05:02:33;;;;;;;0.93;0.77;;;;;;;5.56;36.64;92779.06;5038418;28;20108;-77
2023/01/14 05:04:58;;;;;;;0.60;0.60;;;;;;;5.55;37.09;92779.28;5036659;28;20113;-76
2023/01/14 05:11:17;;;;;;;0.60;0.60;;;;;;;5.53;36.46;92789.91;5036208;28;20059;-77
2023/01/14 05:17:37;;;;;;;3.33;0.77;;;;;;;5.76;35.78;92798.41;5039397;28;20557;-78
2023/01/14 05:20:41;;;;;;;1.13;0.77;;;;;;;5.63;36.57;92803.00;5038718;28;20045;-79
2023/01/14 05:23:11;;;;;;;2.60;1.10;;;;;;;5.74;36.20;92803.06;5037834;28;20030;-78
2023/01/14 05:25:37;;;;;;;0.70;0.70;;;;;;;5.70;36.51;92802.00;5037713;28;20044;-78
2023/01/14 05:28:07;;;;;;;0.80;0.80;;;;;;;5.60;35.99;92813.88;5038477;28;20033;-77
2023/01/14 05:30:33;;;;;;;0.50;0.50;;;;;;;5.54;36.40;92804.47;5038756;28;20038;-77
2023/01/14 05:32:58;;;;;;;0.73;0.73;;;;;;;5.47;36.93;92806.50;5039194;28;20032;-78
2023/01/14 05:39:18;;;;;;;;;;;;;;;5.19;38.38;92810.91;5037795;28;20056;-77
2023/01/14 05:45:41;;;;;;;0.77;0.70;;;;;;;5.00;37.99;92804.50;5038391;28;20049;-78
2023/01/14 05:55:04;;;;;;;0.93;0.80;;;;;;;4.84;38.62;92794.94;5037697;28;20059;-77
2023/01/14 05:57:30;;;;;;;1.27;0.60;;;;;;;4.80;38.56;92790.25;5020870;28;20355;-77
2023/01/14 06:07:42;;;;;;;1.23;0.68;;;;;;;4.99;37.32;92798.50;5037145;28;20411;-78
2023/01/14 06:10:08;;;;;;;;;;;;;;;4.96;37.41;92806.78;5037434;28;20396;-79
2023/01/14 06:12:57;;;;;;;0.95;0.70;;;;;;;4.95;37.37;92807.81;5037287;28;19917;-77
2023/01/14 06:15:33;;;;;;;0.70;0.70;;;;;;;4.90;37.33;92806.97;5037044;28;20033;-77
2023/01/14 06:20:51;;;;;;;1.48;0.80;;;;;;;4.83;37.18;92811.56;5033652;28;20460;-78
2023/01/14 06:23:18;;;;;;;1.65;0.55;;;;;;;4.80;37.15;92810.22;5033196;28;20104;-79
2023/01/14 06:25:47;;;;;;;2.03;1.20;;;;;;;4.94;37.67;92818.44;5019606;28;20040;-77
2023/01/14 06:28:13;;;;;;;0.82;0.73;;;;;;;5.26;38.72;92815.91;5036745;28;20507;-79
2023/01/14 06:30:40;;;;;;;0.65;0.65;;;;;;;4.98;39.66;92815.09;5036103;28;20029;-78
2023/01/14 06:33:08;;;;;;;2.22;0.70;;;;;;;4.85;40.02;92810.28;5030493;28;20099;-76
2023/01/14 06:35:39;;;;;;;0.80;0.80;;;;;;;4.67;41.25;92821.75;5030490;28;20365;-77
2023/01/14 06:38:05;;;;;;;0.75;0.70;;;;;;;4.58;41.65;92828.38;5031180;28;20033;-77
2023/01/14 06:40:30;;;;;;;1.35;0.88;;;;;;;4.46;42.19;92828.50;5027394;28;20554;-77
2023/01/14 06:42:56;;;;;;;1.27;0.80;;;;;;;4.33;42.29;92829.63;5019165;28;20037;-77
2023/01/14 06:45:22;;;;;;;3.15;0.80;;;;;;;4.22;42.13;92837.50;5031070;28;20555;-77
2023/01/14 06:47:48;;;;;;;1.38;0.80;;;;;;;4.10;41.92;92845.38;5029622;28;20068;-77
2023/01/14 06:50:17;;;;;;;2.05;0.88;;;;;;;4.02;42.60;92845.75;5032414;28;20454;-77
2023/01/14 06:52:43;;;;;;;0.75;0.70;;;;;;;3.92;42.83;92838.63;5031047;28;20095;-77
2023/01/14 06:55:10;;;;;;;1.35;0.60;;;;;;;3.85;42.85;92841.38;5032330;28;20049;-77
2023/01/14 06:57:37;;;;;;;1.58;0.82;;;;;;;3.85;42.81;92851.72;5031563;28;20034;-77
2023/01/14 07:00:04;;;;;;;1.60;0.80;;;;;;;3.85;43.00;92858.69;5031900;28;20467;-77
2023/01/14 07:02:29;;;;;;;1.27;0.80;;;;;;;3.85;43.19;92862.09;5030745;28;20556;-77
2023/01/14 07:04:55;;;;;;;7.82;1.23;;;;;;;3.84;43.24;92857.91;5031868;28;20200;-77
2023/01/14 07:07:20;;;;;;;0.60;0.60;;;;;;;3.83;43.74;92861.53;5030979;28;20045;-77
2023/01/14 07:09:46;;;;;;;1.10;0.80;;;;;;;3.84;43.64;92863.09;5030111;28;20080;-77
2023/01/14 07:12:12;;;;;;;1.08;0.82;;;;;;;3.84;43.68;92868.28;5030142;28;20049;-77
2023/01/14 07:14:37;;;;;;;1.33;0.60;;;;;;;3.76;45.10;92879.03;5031094;28;20044;-77
2023/01/14 07:17:03;;;;;;;0.50;0.50;;;;;;;3.69;44.74;92875.78;5030985;28;20030;-77
2023/01/14 07:19:29;;;;;;;0.70;0.70;;;;;;;3.73;44.91;92876.91;5030857;28;20040;-77
2023/01/14 07:21:54;;;;;;;1.63;0.70;;;;;;;3.68;45.89;92874.22;5022336;28;20096;-77
2023/01/14 07:24:20;;;;;;;1.05;0.70;;;;;;;3.67;45.68;92872.66;5018208;28;20486;-77
2023/01/14 07:26:46;;;;;;;0.70;0.70;;;;;;;3.78;45.13;92874.38;5030824;28;20395;-77
2023/01/14 07:29:11;;;;;;;31.52;11.25;;;;;;;4.82;44.34;92878.22;5018162;28;20061;-79
2023/01/14 07:31:37;;;;;;;7.50;3.50;;;;;;;6.13;41.96;92863.44;5030281;28;20095;-77
2023/01/14 07:34:03;;;;;;;3.00;1.35;;;;;;;7.12;39.95;92871.53;5024742;28;20037;-77
2023/01/14 07:36:29;;;;;;;1.15;0.90;;;;;;;8.21;37.98;92875.88;5026503;28;20037;-77
2023/01/14 07:38:54;;;;;;;2.88;0.82;;;;;;;9.34;36.79;92866.75;5029734;28;20498;-77
2023/01/14 07:41:20;;;;;;;7.63;3.65;;;;;;;10.32;34.88;92858.31;5017996;28;20037;-78
2023/01/14 07:43:47;;;;;;;9.20;4.85;;;;;;;11.10;31.88;92861.72;5012955;28;20042;-78
2023/01/14 07:46:14;;;;;;;7.78;4.47;;;;;;;11.87;30.82;92867.59;5021268;28;20484;-79
2023/01/14 07:48:40;;;;;;;3.30;1.90;;;;;;;12.52;29.98;92871.34;5033408;28;20103;-78
2023/01/14 07:51:08;;;;;;;4.93;1.80;;;;;;;13.44;29.24;92861.78;5034300;28;20082;-78
2023/01/14 07:53:34;;;;;;;2.78;1.20;;;;;;;13.98;28.53;92869.84;5017982;28;20059;-79
2023/01/14 07:56:01;;;;;;;1.73;1.00;;;;;;;15.01;27.21;92857.66;5036207;28;20055;-78
2023/01/14 07:58:26;;;;;;;1.90;1.10;;;;;;;15.36;26.19;92863.06;5021020;28;20523;-81
2023/01/14 08:00:53;;;;;;;3.70;1.20;;;;;;;16.34;24.92;92863.66;5028274;28;20073;-79
2023/01/14 08:03:19;;;;;;;2.05;0.93;;;;;;;16.40;24.68;92872.97;5034872;28;20037;-79
2023/01/14 08:05:46;;;;;;;2.17;1.50;;;;;;;15.90;24.34;92882.13;5035526;28;20377;-80
2023/01/14 08:08:12;;;;;;;1.80;1.00;;;;;;;16.39;24.34;92882.78;5037127;28;20052;-79
2023/01/14 08:10:38;;;;;;;1.55;0.90;;;;;;;15.88;24.49;92873.75;5039415;28;20033;-80
2023/01/14 08:13:04;;;;;;;1.75;0.88;;;;;;;16.66;24.15;92880.84;5037178;28;20120;-81
2023/01/14 08:15:30;;;;;;;1.08;0.77;;;;;;;16.50;24.11;92887.72;5018386;28;20039;-79
2023/01/14 08:17:56;;;;;;;1.55;0.90;;;;;;;16.10;24.22;92885.25;5032086;28;20698;-79
2023/01/14 08:20:22;;;;;;;1.90;1.10;;;;;;;17.52;23.59;92888.84;5034495;28;20167;-80
2023/01/14 08:22:49;;;;;;;2.80;1.20;;;;;;;17.34;23.79;92888.16;5034838;28;20038;-78
2023/01/14 08:25:15;;;;;;;1.23;0.90;;;;;;;17.14;23.67;92887.78;5035224;28;20065;-80
2023/01/14 08:27:41;;;;;;;1.42;1.00;;;;;;;17.95;23.22;92891.31;5036707;28;20088;-86
2023/01/14 08:30:07;;;;;;;1.63;1.13;;;;;;;18.37;22.26;92899.25;5000901;28;20026;-81
2023/01/14 08:32:33;;;;;;;2.15;1.02;;;;;;;17.82;22.43;92910.84;5013805;28;20038;-82
2023/01/14 08:34:58;;;;;;;2.28;1.08;;;;;;;19.14;22.03;92910.28;5036250;28;20030;-81
2023/01/14 08:37:24;;;;;;;3.65;1.20;;;;;;;19.42;21.64;92908.88;5017288;28;20041;-81
2023/01/14 08:39:50;;;;;;;2.20;1.10;;;;;;;19.18;20.81;92917.56;5032972;28;20087;-81
2023/01/14 08:42:16;;;;;;;1.85;1.05;;;;;;;18.78;21.07;92929.53;5033578;28;20037;-81
2023/01/14 08:44:41;;;;;;;1.88;1.00;;;;;;;18.22;21.64;92932.41;5033578;28;20068;-80
2023/01/14 08:47:07;;;;;;;2.40;1.20;;;;;;;16.75;24.79;92941.66;5034108;28;20064;-81
2023/01/14 08:49:32;;;;;;;2.45;1.33;;;;;;;15.63;27.03;92946.47;5030250;28;20487;-81
2023/01/14 08:51:59;;;;;;;2.53;1.35;;;;;;;13.59;30.17;92947.47;5034052;28;20037;-81
2023/01/14 08:54:25;;;;;;;1.88;1.15;;;;;;;12.90;31.76;92963.13;5034722;28;20454;-81
2023/01/14 08:56:53;;;;;;;2.05;1.25;;;;;;;12.44;32.22;92961.25;5034839;28;20080;-81
2023/01/14 08:59:18;;;;;;;3.75;1.50;;;;;;;12.56;31.93;92964.19;5034199;28;20041;-80
2023/01/14 09:02:02;;;;;;;3.58;1.30;;;;;;;12.03;31.07;92951.31;5031708;28;20041;-79
2023/01/14 09:04:28;;;;;;;2.50;1.20;;;;;;;13.31;31.06;92952.75;5033731;28;20048;-80
2023/01/14 09:17:58;;;;;;;1.98;1.15;;;;;;;15.33;27.58;92958.59;5039129;28;20033;-80
2023/01/14 09:20:30;;;;;;;1.63;1.17;;;;;;;14.45;29.32;92951.22;5035909;28;20091;-79
2023/01/14 09:22:56;;;;;;;4.53;1.33;;;;;;;13.65;30.15;92956.06;5037558;28;20030;-80
2023/01/14 09:25:21;;;;;;;3.30;1.23;;;;;;;13.71;29.70;92975.91;5023748;28;20037;-79
2023/01/14 09:27:47;;;;;;;1.60;1.02;;;;;;;12.96;29.99;92983.03;5044114;28;20372;-80
2023/01/14 09:30:13;;;;;;;1.77;1.20;;;;;;;12.09;30.85;92981.66;5041649;28;20044;-79
2023/01/14 09:32:39;;;;;;;2.13;1.20;;;;;;;11.16;31.29;92974.03;5033316;28;20037;-80
2023/01/14 09:35:07;;;;;;;2.58;1.30;;;;;;;10.83;35.66;92980.91;5035187;28;20037;-80
2023/01/14 09:37:33;;;;;;;2.67;1.40;;;;;;;10.51;36.94;92968.31;5034948;28;20120;-80
2023/01/14 09:39:59;;;;;;;3.13;1.40;;;;;;;10.97;37.22;92987.06;5016022;28;42073;-80
2023/01/14 09:42:28;;;;;;;3.20;1.50;;;;;;;10.49;35.84;92981.72;4996089;28;20038;-80
2023/01/14 09:45:12;;;;;;;4.20;1.77;;;;;;;10.77;35.84;92982.00;4990012;28;20027;-80
2023/01/14 09:47:40;;;;;;;2.75;1.48;;;;;;;10.59;35.46;92981.63;4988929;28;20308;-80
2023/01/14 09:50:13;;;;;;;3.58;1.63;;;;;;;10.72;34.05;92982.84;4980848;28;20074;-80
2023/01/14 09:52:47;;;;;;;2.72;1.40;;;;;;;10.54;34.48;92981.66;4981415;28;20207;-80
2023/01/14 09:55:39;;;;;;;2.60;1.40;;;;;;;10.60;33.34;92988.44;4999710;28;20027;-79
2023/01/14 09:58:14;;;;;;;5.60;1.63;;;;;;;10.62;34.22;92994.16;4995550;28;20046;-79
2023/01/14 10:00:56;;;;;;;3.67;1.70;;;;;;;10.62;34.67;92993.38;4997891;28;20363;-80
2023/01/14 10:03:51;;;;;;;2.88;1.65;;;;;;;9.90;36.01;92998.22;4996271;28;20026;-81
2023/01/14 10:06:18;;;;;;;3.55;1.50;;;;;;;9.84;36.68;92994.06;4996983;28;20468;-80
2023/01/14 10:08:51;;;;;;;6.82;1.90;;;;;;;10.01;36.88;92995.28;4998188;28;20404;-79
2023/01/14 10:11:17;;;;;;;2.83;1.50;;;;;;;10.37;36.03;93004.81;4997727;28;20493;-80
2023/01/14 10:13:56;;;;;;;3.40;1.60;;;;;;;10.24;36.19;93011.38;4998025;28;20034;-80
2023/01/14 10:16:28;;;;;;;2.67;1.42;;;;;;;10.79;34.64;93004.25;4997489;28;20036;-80
2023/01/14 10:19:17;;;;;;;3.15;1.63;;;;;;;11.22;33.74;93006.25;4996921;28;20049;-80
2023/01/14 10:21:50;;;;;;;3.55;1.55;;;;;;;11.38;33.13;93005.03;5000434;28;20053;-79
2023/01/14 10:24:18;;;;;;;3.47;1.77;;;;;;;11.27;35.76;92984.44;4994953;28;20040;-79
2023/01/14 10:26:49;;;;;;;4.07;1.90;;;;;;;11.47;37.24;92986.84;4997553;28;20042;-81
2023/01/14 10:29:20;;;;;;;2.55;1.50;;;;;;;11.83;33.43;92984.59;4995183;28;20034;-81
2023/01/14 10:31:55;;;;;;;2.88;1.40;;;;;;;12.00;32.35;92994.66;4997786;28;20041;-81
2023/01/14 10:34:33;;;;;;;3.08;1.58;;;;;;;12.35;31.55;92997.84;4995677;28;20038;-81
2023/01/14 10:36:59;;;;;;;2.75;1.50;;;;;;;12.96;31.34;92993.53;5012780;28;20401;-81
2023/01/14 10:39:25;;;;;;;2.47;1.42;;;;;;;12.39;31.80;92977.09;4996617;28;20034;-80
2023/01/14 10:41:51;;;;;;;4.30;1.65;;;;;;;12.67;31.42;92981.38;4996685;28;20042;-80
2023/01/14 10:44:25;;;;;;;3.22;1.80;;;;;;;12.84;31.07;92967.72;4980830;28;20050;-81
2023/01/14 10:46:57;;;;;;;4.60;1.73;;;;;;;12.30;31.43;92969.06;4995398;28;20042;-79
2023/01/14 10:49:39;;;;;;;3.10;1.70;;;;;;;11.68;35.23;92961.16;4997984;28;20733;-80
2023/01/14 10:52:20;;;;;;;4.32;1.73;;;;;;;11.48;36.77;92961.41;4996702;28;20405;-80
2023/01/14 10:55:00;;;;;;;3.70;1.80;;;;;;;11.26;36.79;92957.47;4997848;28;20496;-79
2023/01/14 10:57:30;;;;;;;6.32;2.00;;;;;;;11.04;38.23;92957.94;4995635;28;20100;-80
2023/01/14 10:59:57;;;;;;;3.33;1.75;;;;;;;11.24;37.28;92957.72;4997088;28;20037;-81
2023/01/14 11:02:38;;;;;;;4.28;1.85;;;;;;;11.06;37.13;92945.34;4995837;28;20039;-79
2023/01/14 11:05:07;;;;;;;3.75;2.00;;;;;;;10.92;37.90;92939.97;4997276;28;20034;-79
2023/01/14 11:07:37;;;;;;;3.60;1.80;;;;;;;11.28;36.84;92944.88;4982930;28;20030;-80
2023/01/14 11:10:15;;;;;;;4.15;2.00;;;;;;;11.32;37.38;92952.94;4986358;28;20042;-80
2023/01/14 11:12:41;;;;;;;3.45;1.83;;;;;;;11.07;37.69;92954.75;4996403;28;20109;-80
2023/01/14 11:15:33;;;;;;;3.80;1.70;;;;;;;10.95;38.32;92960.38;4996684;28;20057;-80
2023/01/14 11:18:23;;;;;;;3.33;1.70;;;;;;;10.83;36.11;92958.13;4994194;28;20480;-79
2023/01/14 11:21:25;;;;;;;6.20;1.90;;;;;;;11.17;37.02;92964.38;4995153;28;20041;-80
2023/01/14 11:24:03;;;;;;;3.40;1.80;;;;;;;11.57;35.31;92959.72;4997463;28;20500;-80
2023/01/14 11:26:32;;;;;;;3.53;1.70;;;;;;;11.50;36.74;92954.03;4978968;28;20404;-81
2023/01/14 11:29:16;;;;;;;3.38;1.70;;;;;;;12.08;34.44;92964.38;4997183;28;20044;-77
2023/01/14 11:31:43;;;;;;;3.53;1.83;;;;;;;12.13;33.75;92966.91;4994307;28;20032;-81
2023/01/14 11:34:34;;;;;;;3.90;1.80;;;;;;;12.14;34.04;92951.97;4995695;28;20129;-81
2023/01/14 11:37:15;;;;;;;4.78;2.00;;;;;;;11.69;35.88;92952.25;4992994;28;20118;-82
2023/01/14 11:39:47;;;;;;;4.22;1.95;;;;;;;12.07;34.69;92949.72;4991771;28;20135;-80
2023/01/14 11:42:31;;;;;;;3.42;1.80;;;;;;;12.22;35.18;92944.22;4994098;28;20060;-82
2023/01/14 11:44:58;;;;;;;4.20;1.70;;;;;;;12.50;35.17;92928.59;4996729;28;20050;-83
2023/01/14 11:47:26;;;;;;;3.97;2.22;;;;;;;12.28;36.20;92922.09;4996036;28;20124;-83
2023/01/14 11:50:14;;;;;;;3.17;1.80;;;;;;;12.58;35.15;92924.53;4994381;28;20045;-83
2023/01/14 11:52:39;;;;;;;3.50;1.85;;;;;;;12.28;35.30;92918.69;4995200;28;20041;-83
2023/01/14 11:55:13;;;;;;;3.97;1.92;;;;;;;12.03;34.36;92917.22;4997288;28;20062;-83
2023/01/14 11:57:39;;;;;;;3.72;1.80;;;;;;;11.76;34.88;92910.72;4992809;28;20068;-81
2023/01/14 12:00:24;;;;;;;5.35;1.90;;;;;;;11.50;36.32;92912.88;4990523;28;20109;-79
2023/01/14 12:02:57;;;;;;;3.70;1.80;;;;;;;11.90;36.24;92902.19;5010682;28;20030;-81
2023/01/14 12:05:24;;;;;;;5.32;2.08;;;;;;;11.65;38.13;92904.06;4992951;28;20070;-81
2023/01/14 12:07:53;;;;;;;2.13;1.25;;;;;;;11.25;38.08;92900.84;4991498;28;20129;-81
2023/01/14 12:10:22;;;;;;;3.95;2.15;;;;;;;10.65;40.00;92903.03;4991396;28;20110;-82
2023/01/14 12:18:45;;;;;;;5.88;2.35;;;;;;;10.72;41.18;92898.28;4984523;28;20523;-79
2023/01/14 12:21:13;;;;;;;5.63;2.08;;;;;;;11.24;39.96;92909.78;4992103;28;20108;-80
2023/01/14 12:23:47;;;;;;;4.40;2.13;;;;;;;11.76;38.19;92904.72;4994752;28;20034;-79
2023/01/14 12:26:36;;;;;;;6.15;2.35;;;;;;;12.08;37.85;92888.28;4994186;28;20081;-80
2023/01/14 12:29:05;;;;;;;4.55;2.63;;;;;;;12.19;38.85;92899.41;4988957;28;20042;-81
2023/01/14 12:31:52;;;;;;;4.30;2.58;;;;;;;12.15;39.19;92891.31;4992743;28;20038;-80
2023/01/14 12:34:26;;;;;;;4.22;2.42;;;;;;;11.86;39.21;92889.59;4994784;28;20041;-81
2023/01/14 12:37:15;;;;;;;4.78;2.45;;;;;;;12.25;37.76;92875.44;4995025;28;20041;-80
2023/01/14 12:45:44;;;;;;;6.03;2.50;;;;;;;11.27;39.72;92862.03;4993128;28;20038;-80
2023/01/14 12:48:18;;;;;;;3.90;2.00;;;;;;;10.77;41.63;92854.47;4996953;28;20051;-79
2023/01/14 12:51:09;;;;;;;4.85;2.33;;;;;;;10.23;42.86;92849.47;4992341;28;20432;-79
2023/01/14 12:53:50;;;;;;;5.75;2.20;;;;;;;9.85;44.14;92849.22;4997713;28;20040;-79
2023/01/14 12:56:25;;;;;;;4.88;2.47;;;;;;;9.66;45.18;92847.25;4997686;28;20026;-79
2023/01/14 12:58:58;;;;;;;4.28;2.58;;;;;;;9.75;44.96;92855.31;4995160;28;21646;-78
2023/01/14 13:01:30;;;;;;;5.78;2.47;;;;;;;9.87;44.37;92854.97;4995708;28;20034;-78
2023/01/14 13:04:06;;;;;;;4.53;2.35;;;;;;;9.78;44.55;92845.06;4999606;28;20370;-79
2023/01/14 13:06:35;;;;;;;6.30;2.42;;;;;;;9.83;44.77;92846.88;4998380;28;20117;-79
2023/01/14 13:09:06;;;;;;;5.10;2.70;;;;;;;10.13;44.60;92856.34;4992488;28;20133;-79
2023/01/14 13:11:45;;;;;;;4.88;2.58;;;;;;;10.16;44.46;92847.16;4996800;28;20140;-79
2023/01/14 13:14:33;;;;;;;5.47;2.40;;;;;;;10.67;44.11;92843.31;4998513;28;20122;-79
2023/01/14 13:17:02;;;;;;;4.82;2.60;;;;;;;10.98;42.82;92839.31;4994140;28;20035;-80
2023/01/14 13:19:30;;;;;;;5.50;2.70;;;;;;;11.36;41.73;92842.00;4994376;28;20035;-79
2023/01/14 13:22:02;;;;;;;6.03;2.80;;;;;;;11.66;41.28;92821.69;4987173;28;20485;-80
2023/01/14 13:24:37;;;;;;;4.80;2.70;;;;;;;11.82;40.73;92830.91;4998692;28;20125;-79
2023/01/14 13:27:21;;;;;;;5.90;2.50;;;;;;;11.46;41.45;92833.25;4996587;28;20039;-80
2023/01/14 13:29:47;;;;;;;5.47;2.90;;;;;;;11.57;41.13;92820.75;4998947;28;20062;-80
2023/01/14 13:32:50;;;;;;;7.32;3.05;;;;;;;11.64;41.97;92824.59;4997413;28;20023;-79
2023/01/14 13:35:22;;;;;;;5.70;2.75;;;;;;;12.16;40.54;92822.03;4998172;28;20448;-79
2023/01/14 13:37:52;;;;;;;5.65;2.78;;;;;;;11.40;42.21;92829.13;4996659;28;20042;-79
2023/01/14 13:40:24;;;;;;;4.93;2.60;;;;;;;11.04;42.40;92838.19;4997121;28;20045;-80
2023/01/14 13:42:56;;;;;;;;;;;;;;;10.66;43.59;92845.16;4994250;28;20393;-79
2023/01/14 13:45:29;;;;;;;4.40;2.67;;;;;;;10.73;43.36;92842.22;4997134;28;19936;-79
2023/01/14 13:47:59;;;;;;;5.65;3.13;;;;;;;10.67;44.07;92838.09;4979601;28;20054;-79
2023/01/14 13:50:29;;;;;;;7.68;3.50;;;;;;;10.94;44.03;92833.09;4995714;28;20034;-79
2023/01/14 13:53:17;;;;;;;8.40;3.33;;;;;;;10.88;43.34;92834.19;4988989;28;20038;-79
2023/01/14 13:55:57;;;;;;;6.72;3.53;;;;;;;11.28;43.04;92826.94;4977075;28;20046;-80
2023/01/14 13:58:40;;;;;;;8.07;3.50;;;;;;;11.43;42.61;92839.03;4995772;28;20038;-79
2023/01/14 14:01:18;;;;;;;6.15;3.38;;;;;;;11.43;42.57;92839.03;4996636;28;20034;-79
2023/01/14 14:03:43;;;;;;;5.75;3.40;;;;;;;11.17;43.77;92833.34;4980441;28;20069;-79
2023/01/14 14:06:32;;;;;;;7.00;3.05;;;;;;;11.01;43.90;92833.53;4977510;28;20043;-79
2023/01/14 14:09:22;;;;;;;6.47;3.50;;;;;;;11.21;43.32;92837.75;4996228;28;20053;-79
2023/01/14 14:11:57;;;;;;;6.70;3.30;;;;;;;10.99;44.28;92829.63;4980046;28;20408;-80
2023/01/14 14:14:28;;;;;;;7.03;3.40;;;;;;;11.01;44.99;92825.69;4997661;28;20030;-79
2023/01/14 14:17:03;;;;;;;7.63;3.95;;;;;;;11.26;44.09;92831.66;4978248;28;20507;-80
2023/01/14 14:19:28;;;;;;;10.25;3.97;;;;;;;11.14;44.53;92824.19;4977940;28;20105;-79
2023/01/14 14:22:05;;;;;;;5.97;3.53;;;;;;;11.00;45.36;92831.19;4987507;28;20034;-79
2023/01/14 14:24:30;;;;;;;7.13;3.50;;;;;;;10.82;46.34;92830.06;4991538;28;20525;-79
2023/01/14 14:27:00;;;;;;;8.30;4.05;;;;;;;10.90;46.01;92826.03;4997264;28;20037;-79
2023/01/14 14:29:26;;;;;;;6.97;4.00;;;;;;;10.80;46.53;92821.72;4990862;28;20023;-79
2023/01/14 14:31:54;;;;;;;7.47;3.78;;;;;;;10.81;46.88;92816.19;4983524;28;20049;-79
2023/01/14 14:34:22;;;;;;;8.00;4.13;;;;;;;10.77;46.86;92820.44;4996221;28;20033;-81
2023/01/14 14:36:55;;;;;;;6.35;3.65;;;;;;;10.69;47.45;92821.03;4988188;28;20069;-78
2023/01/14 14:39:31;;;;;;;9.00;3.97;;;;;;;10.81;47.66;92823.28;4995799;28;20034;-78
2023/01/14 14:41:58;;;;;;;9.05;4.53;;;;;;;10.71;48.29;92823.38;4994841;28;20619;-80
2023/01/14 14:44:27;;;;;;;6.68;4.00;;;;;;;10.75;47.90;92819.16;4989430;28;20105;-80
2023/01/14 14:46:54;;;;;;;7.55;4.20;;;;;;;10.71;47.89;92820.75;4984284;28;20100;-81